sensor_id;sensor_type;location;lat;lon;timestamp;P1;P2;P0
61760;PMS5003;47664;51.660;-0.100;2023-08-17T00:00:42;18;18;
61760;PMS5003;47664;51.660;-0.100;2023-08-17T00:03:09;20;14;
61760;PMS5003;47664;51.660;-0.100;2023-08-17T00:05:36;16;14;
61760;PMS5003;47664;51.660;-0.100;2023-08-17T00:08:04;15;12;
61760;PMS5003;47664;51.660;-0.100;2023-08-17T00:10:32;12;12;
61760;PMS5003;47664;51.660;-0.100;2023-08-17T00:12:59;13;12;
61760;PMS5003;47664;51.660;-0.100;2023-08-17T00:15:27;18;18;
61760;PMS5003;47664;51.660;-0.100;2023-08-17T00:17:53;14;11;
61760;PMS5003;47664;51.660;-0.100;2023-08-17T00:20:20;13;11;
61760;PMS5003;47664;51.660;-0.100;2023-08-17T00:22:48;20;14;
61760;PMS5003;47664;51.660;-0.100;2023-08-17T00:25:15;13;13;
61760;PMS5003;47664;51.660;-0.100;2023-08-17T00:27:42;13;13;
61760;PMS5003;47664;51.660;-0.100;2023-08-17T00:30:10;13;12;
61760;PMS5003;47664;51.660;-0.100;2023-08-17T00:32:38;13;13;
61760;PMS5003;47664;51.660;-0.100;2023-08-17T00:35:05;12;9;
61760;PMS5003;47664;51.660;-0.100;2023-08-17T00:37:33;12;12;
61760;PMS5003;47664;51.660;-0.100;2023-08-17T00:40:00;14;14;
61760;PMS5003;47664;51.660;-0.100;2023-08-17T00:42:28;14;13;
61760;PMS5003;47664;51.660;-0.100;2023-08-17T00:44:55;12;12;
61760;PMS5003;47664;51.660;-0.100;2023-08-17T00:47:23;14;11;
61760;PMS5003;47664;51.660;-0.100;2023-08-17T00:49:51;14;12;
61760;PMS5003;47664;51.660;-0.100;2023-08-17T00:52:19;14;13;
61760;PMS5003;47664;51.660;-0.100;2023-08-17T00:54:46;13;13;
61760;PMS5003;47664;51.660;-0.100;2023-08-17T00:57:13;14;13;
61760;PMS5003;47664;51.660;-0.100;2023-08-17T00:59:41;16;13;
61760;PMS5003;47664;51.660;-0.100;2023-08-17T01:02:08;15;13;
61760;PMS5003;47664;51.660;-0.100;2023-08-17T01:04:35;15;12;
61760;PMS5003;47664;51.660;-0.100;2023-08-17T01:07:02;14;14;
61760;PMS5003;47664;51.660;-0.100;2023-08-17T01:09:29;11;11;
61760;PMS5003;47664;51.660;-0.100;2023-08-17T01:11:57;15;12;
61760;PMS5003;47664;51.660;-0.100;2023-08-17T01:14:33;14;14;
61760;PMS5003;47664;51.660;-0.100;2023-08-17T01:17:10;13;13;
61760;PMS5003;47664;51.660;-0.100;2023-08-17T01:19:44;17;14;
61760;PMS5003;47664;51.660;-0.100;2023-08-17T01:22:12;15;14;
61760;PMS5003;47664;51.660;-0.100;2023-08-17T01:24:43;15;15;
61760;PMS5003;47664;51.660;-0.100;2023-08-17T01:27:10;18;14;
61760;PMS5003;47664;51.660;-0.100;2023-08-17T01:29:37;15;12;
61760;PMS5003;47664;51.660;-0.100;2023-08-17T01:32:07;14;13;
61760;PMS5003;47664;51.660;-0.100;2023-08-17T01:34:44;15;14;
61760;PMS5003;47664;51.660;-0.100;2023-08-17T01:37:17;14;12;
61760;PMS5003;47664;51.660;-0.100;2023-08-17T01:39:47;18;16;
61760;PMS5003;47664;51.660;-0.100;2023-08-17T01:42:18;15;13;
61760;PMS5003;47664;51.660;-0.100;2023-08-17T01:44:47;21;21;
61760;PMS5003;47664;51.660;-0.100;2023-08-17T01:47:15;16;15;
61760;PMS5003;47664;51.660;-0.100;2023-08-17T01:49:46;21;16;
61760;PMS5003;47664;51.660;-0.100;2023-08-17T01:52:14;13;13;
61760;PMS5003;47664;51.660;-0.100;2023-08-17T01:54:41;16;16;
61760;PMS5003;47664;51.660;-0.100;2023-08-17T01:57:09;14;13;
61760;PMS5003;47664;51.660;-0.100;2023-08-17T01:59:36;14;14;
61760;PMS5003;47664;51.660;-0.100;2023-08-17T02:02:03;21;16;
61760;PMS5003;47664;51.660;-0.100;2023-08-17T02:04:31;13;12;
61760;PMS5003;47664;51.660;-0.100;2023-08-17T02:06:58;13;12;
61760;PMS5003;47664;51.660;-0.100;2023-08-17T02:09:25;16;14;
61760;PMS5003;47664;51.660;-0.100;2023-08-17T02:11:52;22;20;
61760;PMS5003;47664;51.660;-0.100;2023-08-17T02:14:19;14;14;
61760;PMS5003;47664;51.660;-0.100;2023-08-17T02:16:46;15;15;
61760;PMS5003;47664;51.660;-0.100;2023-08-17T02:19:13;19;17;
61760;PMS5003;47664;51.660;-0.100;2023-08-17T02:21:41;13;13;
61760;PMS5003;47664;51.660;-0.100;2023-08-17T02:24:08;16;13;
61760;PMS5003;47664;51.660;-0.100;2023-08-17T02:26:35;14;13;
61760;PMS5003;47664;51.660;-0.100;2023-08-17T02:29:01;15;13;
61760;PMS5003;47664;51.660;-0.100;2023-08-17T02:31:28;16;14;
61760;PMS5003;47664;51.660;-0.100;2023-08-17T02:33:55;20;15;
61760;PMS5003;47664;51.660;-0.100;2023-08-17T02:36:22;19;16;
61760;PMS5003;47664;51.660;-0.100;2023-08-17T02:38:50;13;11;
61760;PMS5003;47664;51.660;-0.100;2023-08-17T02:41:17;14;13;
61760;PMS5003;47664;51.660;-0.100;2023-08-17T02:43:44;16;11;
61760;PMS5003;47664;51.660;-0.100;2023-08-17T02:46:11;19;18;
61760;PMS5003;47664;51.660;-0.100;2023-08-17T02:48:39;15;15;
61760;PMS5003;47664;51.660;-0.100;2023-08-17T02:51:06;19;17;
61760;PMS5003;47664;51.660;-0.100;2023-08-17T02:53:33;14;11;
61760;PMS5003;47664;51.660;-0.100;2023-08-17T02:56:00;17;15;
61760;PMS5003;47664;51.660;-0.100;2023-08-17T02:58:27;14;12;
61760;PMS5003;47664;51.660;-0.100;2023-08-17T03:00:54;16;16;
61760;PMS5003;47664;51.660;-0.100;2023-08-17T03:03:21;13;10;
61760;PMS5003;47664;51.660;-0.100;2023-08-17T03:05:49;16;13;
61760;PMS5003;47664;51.660;-0.100;2023-08-17T03:08:16;18;15;
61760;PMS5003;47664;51.660;-0.100;2023-08-17T03:10:44;15;13;
61760;PMS5003;47664;51.660;-0.100;2023-08-17T03:13:11;16;14;
61760;PMS5003;47664;51.660;-0.100;2023-08-17T03:15:38;17;14;
61760;PMS5003;47664;51.660;-0.100;2023-08-17T03:18:06;15;13;
61760;PMS5003;47664;51.660;-0.100;2023-08-17T03:20:32;12;11;
61760;PMS5003;47664;51.660;-0.100;2023-08-17T03:22:59;14;12;
61760;PMS5003;47664;51.660;-0.100;2023-08-17T03:25:26;16;13;
61760;PMS5003;47664;51.660;-0.100;2023-08-17T03:27:53;14;12;
61760;PMS5003;47664;51.660;-0.100;2023-08-17T03:30:20;17;14;
61760;PMS5003;47664;51.660;-0.100;2023-08-17T03:32:47;11;11;
61760;PMS5003;47664;51.660;-0.100;2023-08-17T03:35:15;14;13;
61760;PMS5003;47664;51.660;-0.100;2023-08-17T03:37:42;16;12;
61760;PMS5003;47664;51.660;-0.100;2023-08-17T03:40:09;12;12;
61760;PMS5003;47664;51.660;-0.100;2023-08-17T03:42:37;17;12;
61760;PMS5003;47664;51.660;-0.100;2023-08-17T03:45:04;12;12;
61760;PMS5003;47664;51.660;-0.100;2023-08-17T03:47:33;16;11;
61760;PMS5003;47664;51.660;-0.100;2023-08-17T03:49:59;13;12;
61760;PMS5003;47664;51.660;-0.100;2023-08-17T03:52:26;15;13;
61760;PMS5003;47664;51.660;-0.100;2023-08-17T03:54:54;10;8;
61760;PMS5003;47664;51.660;-0.100;2023-08-17T03:57:21;14;12;
61760;PMS5003;47664;51.660;-0.100;2023-08-17T03:59:48;12;11;
61760;PMS5003;47664;51.660;-0.100;2023-08-17T04:02:15;14;12;
61760;PMS5003;47664;51.660;-0.100;2023-08-17T04:04:43;13;10;
61760;PMS5003;47664;51.660;-0.100;2023-08-17T04:07:09;15;13;
61760;PMS5003;47664;51.660;-0.100;2023-08-17T04:09:36;13;8;
61760;PMS5003;47664;51.660;-0.100;2023-08-17T04:12:04;14;12;
61760;PMS5003;47664;51.660;-0.100;2023-08-17T04:14:31;14;12;
61760;PMS5003;47664;51.660;-0.100;2023-08-17T04:16:58;11;11;
61760;PMS5003;47664;51.660;-0.100;2023-08-17T04:19:25;13;10;
61760;PMS5003;47664;51.660;-0.100;2023-08-17T04:21:52;13;10;
61760;PMS5003;47664;51.660;-0.100;2023-08-17T04:24:20;12;9;
61760;PMS5003;47664;51.660;-0.100;2023-08-17T04:26:47;10;8;
61760;PMS5003;47664;51.660;-0.100;2023-08-17T04:29:14;15;14;
61760;PMS5003;47664;51.660;-0.100;2023-08-17T04:31:41;11;10;
61760;PMS5003;47664;51.660;-0.100;2023-08-17T04:34:09;15;13;
61760;PMS5003;47664;51.660;-0.100;2023-08-17T04:36:36;11;11;
61760;PMS5003;47664;51.660;-0.100;2023-08-17T04:39:04;13;11;
61760;PMS5003;47664;51.660;-0.100;2023-08-17T04:41:30;13;13;
61760;PMS5003;47664;51.660;-0.100;2023-08-17T04:43:58;17;14;
61760;PMS5003;47664;51.660;-0.100;2023-08-17T04:46:24;11;10;
61760;PMS5003;47664;51.660;-0.100;2023-08-17T04:48:51;12;9;
61760;PMS5003;47664;51.660;-0.100;2023-08-17T04:51:18;15;13;
61760;PMS5003;47664;51.660;-0.100;2023-08-17T04:53:46;10;10;
61760;PMS5003;47664;51.660;-0.100;2023-08-17T04:56:13;12;12;
61760;PMS5003;47664;51.660;-0.100;2023-08-17T04:58:40;13;11;
61760;PMS5003;47664;51.660;-0.100;2023-08-17T05:01:07;12;9;
61760;PMS5003;47664;51.660;-0.100;2023-08-17T05:03:35;10;10;
61760;PMS5003;47664;51.660;-0.100;2023-08-17T05:06:02;9;7;
61760;PMS5003;47664;51.660;-0.100;2023-08-17T05:08:29;10;10;
61760;PMS5003;47664;51.660;-0.100;2023-08-17T05:10:56;12;11;
61760;PMS5003;47664;51.660;-0.100;2023-08-17T05:13:23;13;10;
61760;PMS5003;47664;51.660;-0.100;2023-08-17T05:15:50;11;9;
61760;PMS5003;47664;51.660;-0.100;2023-08-17T05:18:17;16;13;
61760;PMS5003;47664;51.660;-0.100;2023-08-17T05:20:44;13;9;
61760;PMS5003;47664;51.660;-0.100;2023-08-17T05:23:11;8;7;
61760;PMS5003;47664;51.660;-0.100;2023-08-17T05:25:38;12;9;
61760;PMS5003;47664;51.660;-0.100;2023-08-17T05:28:05;14;9;
61760;PMS5003;47664;51.660;-0.100;2023-08-17T05:30:32;11;7;
61760;PMS5003;47664;51.660;-0.100;2023-08-17T05:33:00;11;10;
61760;PMS5003;47664;51.660;-0.100;2023-08-17T05:35:27;10;10;
61760;PMS5003;47664;51.660;-0.100;2023-08-17T05:37:54;10;10;
61760;PMS5003;47664;51.660;-0.100;2023-08-17T05:40:21;14;12;
61760;PMS5003;47664;51.660;-0.100;2023-08-17T05:42:49;16;13;
61760;PMS5003;47664;51.660;-0.100;2023-08-17T05:45:16;14;8;
61760;PMS5003;47664;51.660;-0.100;2023-08-17T05:47:43;12;9;
61760;PMS5003;47664;51.660;-0.100;2023-08-17T05:50:11;11;9;
61760;PMS5003;47664;51.660;-0.100;2023-08-17T05:52:38;13;10;
61760;PMS5003;47664;51.660;-0.100;2023-08-17T05:55:05;11;11;
61760;PMS5003;47664;51.660;-0.100;2023-08-17T05:57:34;14;9;
61760;PMS5003;47664;51.660;-0.100;2023-08-17T06:00:00;12;7;
61760;PMS5003;47664;51.660;-0.100;2023-08-17T06:02:27;9;8;
61760;PMS5003;47664;51.660;-0.100;2023-08-17T06:04:55;12;10;
61760;PMS5003;47664;51.660;-0.100;2023-08-17T06:07:22;13;12;
61760;PMS5003;47664;51.660;-0.100;2023-08-17T06:09:49;14;10;
61760;PMS5003;47664;51.660;-0.100;2023-08-17T06:12:16;15;12;
61760;PMS5003;47664;51.660;-0.100;2023-08-17T06:14:43;12;10;
61760;PMS5003;47664;51.660;-0.100;2023-08-17T06:17:10;10;9;
61760;PMS5003;47664;51.660;-0.100;2023-08-17T06:19:38;12;12;
61760;PMS5003;47664;51.660;-0.100;2023-08-17T06:22:04;14;11;
61760;PMS5003;47664;51.660;-0.100;2023-08-17T06:24:31;12;12;
61760;PMS5003;47664;51.660;-0.100;2023-08-17T06:26:59;10;10;
61760;PMS5003;47664;51.660;-0.100;2023-08-17T06:29:26;13;8;
61760;PMS5003;47664;51.660;-0.100;2023-08-17T06:31:53;12;12;
61760;PMS5003;47664;51.660;-0.100;2023-08-17T06:34:20;14;9;
61760;PMS5003;47664;51.660;-0.100;2023-08-17T06:36:56;11;10;
61760;PMS5003;47664;51.660;-0.100;2023-08-17T06:39:25;10;10;
61760;PMS5003;47664;51.660;-0.100;2023-08-17T06:41:51;10;8;
61760;PMS5003;47664;51.660;-0.100;2023-08-17T06:44:19;12;11;
61760;PMS5003;47664;51.660;-0.100;2023-08-17T06:46:46;16;10;
61760;PMS5003;47664;51.660;-0.100;2023-08-17T06:49:14;14;10;
61760;PMS5003;47664;51.660;-0.100;2023-08-17T06:51:42;11;10;
61760;PMS5003;47664;51.660;-0.100;2023-08-17T06:54:09;7;7;
61760;PMS5003;47664;51.660;-0.100;2023-08-17T06:56:36;10;9;
61760;PMS5003;47664;51.660;-0.100;2023-08-17T06:59:03;10;8;
61760;PMS5003;47664;51.660;-0.100;2023-08-17T07:01:30;10;10;
61760;PMS5003;47664;51.660;-0.100;2023-08-17T07:03:57;11;10;
61760;PMS5003;47664;51.660;-0.100;2023-08-17T07:06:24;13;9;
61760;PMS5003;47664;51.660;-0.100;2023-08-17T07:08:51;16;11;
61760;PMS5003;47664;51.660;-0.100;2023-08-17T07:11:18;13;13;
61760;PMS5003;47664;51.660;-0.100;2023-08-17T07:13:45;12;10;
61760;PMS5003;47664;51.660;-0.100;2023-08-17T07:16:12;12;10;
61760;PMS5003;47664;51.660;-0.100;2023-08-17T07:18:39;9;9;
61760;PMS5003;47664;51.660;-0.100;2023-08-17T07:21:07;12;9;
61760;PMS5003;47664;51.660;-0.100;2023-08-17T07:23:34;14;11;
61760;PMS5003;47664;51.660;-0.100;2023-08-17T07:26:02;11;11;
61760;PMS5003;47664;51.660;-0.100;2023-08-17T07:28:28;8;8;
61760;PMS5003;47664;51.660;-0.100;2023-08-17T07:30:56;7;6;
61760;PMS5003;47664;51.660;-0.100;2023-08-17T07:33:23;11;11;
61760;PMS5003;47664;51.660;-0.100;2023-08-17T07:35:50;11;11;
61760;PMS5003;47664;51.660;-0.100;2023-08-17T07:38:17;10;10;
61760;PMS5003;47664;51.660;-0.100;2023-08-17T07:40:44;9;9;
61760;PMS5003;47664;51.660;-0.100;2023-08-17T07:43:11;9;8;
61760;PMS5003;47664;51.660;-0.100;2023-08-17T07:45:39;8;6;
61760;PMS5003;47664;51.660;-0.100;2023-08-17T07:48:06;9;8;
61760;PMS5003;47664;51.660;-0.100;2023-08-17T07:50:33;11;9;
61760;PMS5003;47664;51.660;-0.100;2023-08-17T07:53:01;6;4;
61760;PMS5003;47664;51.660;-0.100;2023-08-17T07:55:28;11;8;
61760;PMS5003;47664;51.660;-0.100;2023-08-17T07:57:55;13;10;
61760;PMS5003;47664;51.660;-0.100;2023-08-17T08:00:22;10;10;
61760;PMS5003;47664;51.660;-0.100;2023-08-17T08:02:49;12;11;
61760;PMS5003;47664;51.660;-0.100;2023-08-17T08:05:17;10;7;
61760;PMS5003;47664;51.660;-0.100;2023-08-17T08:07:44;13;10;
61760;PMS5003;47664;51.660;-0.100;2023-08-17T08:10:11;13;12;
61760;PMS5003;47664;51.660;-0.100;2023-08-17T08:12:38;9;6;
61760;PMS5003;47664;51.660;-0.100;2023-08-17T08:15:05;10;7;
61760;PMS5003;47664;51.660;-0.100;2023-08-17T08:17:33;9;8;
61760;PMS5003;47664;51.660;-0.100;2023-08-17T08:20:00;10;8;
61760;PMS5003;47664;51.660;-0.100;2023-08-17T08:22:27;13;12;
61760;PMS5003;47664;51.660;-0.100;2023-08-17T08:24:54;9;8;
61760;PMS5003;47664;51.660;-0.100;2023-08-17T08:27:22;13;9;
61760;PMS5003;47664;51.660;-0.100;2023-08-17T08:29:50;10;9;
61760;PMS5003;47664;51.660;-0.100;2023-08-17T08:32:17;12;10;
61760;PMS5003;47664;51.660;-0.100;2023-08-17T08:34:45;14;10;
61760;PMS5003;47664;51.660;-0.100;2023-08-17T08:37:12;9;7;
61760;PMS5003;47664;51.660;-0.100;2023-08-17T08:39:48;10;7;
61760;PMS5003;47664;51.660;-0.100;2023-08-17T08:42:15;12;6;
61760;PMS5003;47664;51.660;-0.100;2023-08-17T08:44:43;8;6;
61760;PMS5003;47664;51.660;-0.100;2023-08-17T08:47:11;10;8;
61760;PMS5003;47664;51.660;-0.100;2023-08-17T08:49:39;7;6;
61760;PMS5003;47664;51.660;-0.100;2023-08-17T08:52:14;9;6;
61760;PMS5003;47664;51.660;-0.100;2023-08-17T08:54:49;8;5;
61760;PMS5003;47664;51.660;-0.100;2023-08-17T08:57:20;12;8;
61760;PMS5003;47664;51.660;-0.100;2023-08-17T08:59:48;6;6;
61760;PMS5003;47664;51.660;-0.100;2023-08-17T09:02:15;8;5;
61760;PMS5003;47664;51.660;-0.100;2023-08-17T09:04:43;8;5;
61760;PMS5003;47664;51.660;-0.100;2023-08-17T09:07:11;8;5;
61760;PMS5003;47664;51.660;-0.100;2023-08-17T09:09:39;5;5;
61760;PMS5003;47664;51.660;-0.100;2023-08-17T09:12:07;8;6;
61760;PMS5003;47664;51.660;-0.100;2023-08-17T09:14:34;5;5;
61760;PMS5003;47664;51.660;-0.100;2023-08-17T09:17:01;4;4;
61760;PMS5003;47664;51.660;-0.100;2023-08-17T09:19:31;3;2;
61760;PMS5003;47664;51.660;-0.100;2023-08-17T09:21:58;6;4;
61760;PMS5003;47664;51.660;-0.100;2023-08-17T09:24:24;3;3;
61760;PMS5003;47664;51.660;-0.100;2023-08-17T09:27:00;4;4;
61760;PMS5003;47664;51.660;-0.100;2023-08-17T09:29:27;6;4;
61760;PMS5003;47664;51.660;-0.100;2023-08-17T09:31:55;5;5;
61760;PMS5003;47664;51.660;-0.100;2023-08-17T09:34:22;7;4;
61760;PMS5003;47664;51.660;-0.100;2023-08-17T09:36:50;6;5;
61760;PMS5003;47664;51.660;-0.100;2023-08-17T09:39:17;4;4;
61760;PMS5003;47664;51.660;-0.100;2023-08-17T09:41:44;7;7;
61760;PMS5003;47664;51.660;-0.100;2023-08-17T09:44:11;3;3;
61760;PMS5003;47664;51.660;-0.100;2023-08-17T09:46:38;5;4;
61760;PMS5003;47664;51.660;-0.100;2023-08-17T09:49:08;5;5;
61760;PMS5003;47664;51.660;-0.100;2023-08-17T09:51:36;5;5;
61760;PMS5003;47664;51.660;-0.100;2023-08-17T09:54:03;5;5;
61760;PMS5003;47664;51.660;-0.100;2023-08-17T09:56:30;3;3;
61760;PMS5003;47664;51.660;-0.100;2023-08-17T09:58:58;4;4;
61760;PMS5003;47664;51.660;-0.100;2023-08-17T10:01:25;4;4;
61760;PMS5003;47664;51.660;-0.100;2023-08-17T10:03:55;3;3;
61760;PMS5003;47664;51.660;-0.100;2023-08-17T10:06:25;5;5;
61760;PMS5003;47664;51.660;-0.100;2023-08-17T10:08:56;5;2;
61760;PMS5003;47664;51.660;-0.100;2023-08-17T10:11:24;4;4;
61760;PMS5003;47664;51.660;-0.100;2023-08-17T10:13:59;3;3;
61760;PMS5003;47664;51.660;-0.100;2023-08-17T10:16:30;4;4;
61760;PMS5003;47664;51.660;-0.100;2023-08-17T10:19:04;2;2;
61760;PMS5003;47664;51.660;-0.100;2023-08-17T10:21:39;4;4;
61760;PMS5003;47664;51.660;-0.100;2023-08-17T10:24:12;4;3;
61760;PMS5003;47664;51.660;-0.100;2023-08-17T10:26:41;5;2;
61760;PMS5003;47664;51.660;-0.100;2023-08-17T10:29:09;3;3;
61760;PMS5003;47664;51.660;-0.100;2023-08-17T10:31:37;2;2;
61760;PMS5003;47664;51.660;-0.100;2023-08-17T10:34:05;6;6;
61760;PMS5003;47664;51.660;-0.100;2023-08-17T10:36:32;5;3;
61760;PMS5003;47664;51.660;-0.100;2023-08-17T10:39:33;5;5;
61760;PMS5003;47664;51.660;-0.100;2023-08-17T10:42:01;3;3;
61760;PMS5003;47664;51.660;-0.100;2023-08-17T10:44:44;6;3;
61760;PMS5003;47664;51.660;-0.100;2023-08-17T10:47:18;4;2;
61760;PMS5003;47664;51.660;-0.100;2023-08-17T10:49:47;4;2;
61760;PMS5003;47664;51.660;-0.100;2023-08-17T10:52:15;5;3;
61760;PMS5003;47664;51.660;-0.100;2023-08-17T10:54:52;6;5;
61760;PMS5003;47664;51.660;-0.100;2023-08-17T10:57:36;3;3;
61760;PMS5003;47664;51.660;-0.100;2023-08-17T11:00:06;3;3;
61760;PMS5003;47664;51.660;-0.100;2023-08-17T11:02:39;2;2;
61760;PMS5003;47664;51.660;-0.100;2023-08-17T11:05:07;1;1;
61760;PMS5003;47664;51.660;-0.100;2023-08-17T11:07:42;3;3;
61760;PMS5003;47664;51.660;-0.100;2023-08-17T11:10:11;5;4;
61760;PMS5003;47664;51.660;-0.100;2023-08-17T11:12:41;2;2;
61760;PMS5003;47664;51.660;-0.100;2023-08-17T11:15:08;4;4;
61760;PMS5003;47664;51.660;-0.100;2023-08-17T11:17:36;4;4;
61760;PMS5003;47664;51.660;-0.100;2023-08-17T11:20:03;3;3;
61760;PMS5003;47664;51.660;-0.100;2023-08-17T11:22:31;4;2;
61760;PMS5003;47664;51.660;-0.100;2023-08-17T11:24:59;5;4;
61760;PMS5003;47664;51.660;-0.100;2023-08-17T11:27:29;5;4;
61760;PMS5003;47664;51.660;-0.100;2023-08-17T11:29:57;4;4;
61760;PMS5003;47664;51.660;-0.100;2023-08-17T11:32:24;5;4;
61760;PMS5003;47664;51.660;-0.100;2023-08-17T11:34:51;3;3;
61760;PMS5003;47664;51.660;-0.100;2023-08-17T11:37:18;8;3;
61760;PMS5003;47664;51.660;-0.100;2023-08-17T11:39:47;3;3;
61760;PMS5003;47664;51.660;-0.100;2023-08-17T11:42:14;6;4;
61760;PMS5003;47664;51.660;-0.100;2023-08-17T11:44:41;4;3;
61760;PMS5003;47664;51.660;-0.100;2023-08-17T11:47:08;3;3;
61760;PMS5003;47664;51.660;-0.100;2023-08-17T11:49:36;5;4;
61760;PMS5003;47664;51.660;-0.100;2023-08-17T11:52:03;2;2;
61760;PMS5003;47664;51.660;-0.100;2023-08-17T11:54:32;3;3;
61760;PMS5003;47664;51.660;-0.100;2023-08-17T11:56:59;3;3;
61760;PMS5003;47664;51.660;-0.100;2023-08-17T11:59:26;3;2;
61760;PMS5003;47664;51.660;-0.100;2023-08-17T12:01:53;6;5;
61760;PMS5003;47664;51.660;-0.100;2023-08-17T12:04:20;2;2;
61760;PMS5003;47664;51.660;-0.100;2023-08-17T12:06:48;4;3;
61760;PMS5003;47664;51.660;-0.100;2023-08-17T12:09:15;2;2;
61760;PMS5003;47664;51.660;-0.100;2023-08-17T12:11:44;3;3;
61760;PMS5003;47664;51.660;-0.100;2023-08-17T12:14:11;3;3;
61760;PMS5003;47664;51.660;-0.100;2023-08-17T12:16:47;2;2;
61760;PMS5003;47664;51.660;-0.100;2023-08-17T12:19:14;2;2;
61760;PMS5003;47664;51.660;-0.100;2023-08-17T12:21:42;2;2;
61760;PMS5003;47664;51.660;-0.100;2023-08-17T12:24:09;2;2;
61760;PMS5003;47664;51.660;-0.100;2023-08-17T12:26:36;3;3;
61760;PMS5003;47664;51.660;-0.100;2023-08-17T12:29:08;4;2;
61760;PMS5003;47664;51.660;-0.100;2023-08-17T12:31:35;2;2;
61760;PMS5003;47664;51.660;-0.100;2023-08-17T12:34:03;2;2;
61760;PMS5003;47664;51.660;-0.100;2023-08-17T12:36:31;5;2;
61760;PMS5003;47664;51.660;-0.100;2023-08-17T12:38:58;2;2;
61760;PMS5003;47664;51.660;-0.100;2023-08-17T12:41:25;3;2;
61760;PMS5003;47664;51.660;-0.100;2023-08-17T12:43:53;3;2;
61760;PMS5003;47664;51.660;-0.100;2023-08-17T12:46:19;3;3;
61760;PMS5003;47664;51.660;-0.100;2023-08-17T12:48:46;5;3;
61760;PMS5003;47664;51.660;-0.100;2023-08-17T12:51:13;4;3;
61760;PMS5003;47664;51.660;-0.100;2023-08-17T12:53:41;5;2;
61760;PMS5003;47664;51.660;-0.100;2023-08-17T12:56:08;2;2;
61760;PMS5003;47664;51.660;-0.100;2023-08-17T12:58:35;0;0;
61760;PMS5003;47664;51.660;-0.100;2023-08-17T13:01:03;1;1;
61760;PMS5003;47664;51.660;-0.100;2023-08-17T13:03:29;2;2;
61760;PMS5003;47664;51.660;-0.100;2023-08-17T13:05:56;1;1;
61760;PMS5003;47664;51.660;-0.100;2023-08-17T13:08:24;0;0;
61760;PMS5003;47664;51.660;-0.100;2023-08-17T13:10:51;3;1;
61760;PMS5003;47664;51.660;-0.100;2023-08-17T13:13:18;1;1;
61760;PMS5003;47664;51.660;-0.100;2023-08-17T13:15:44;2;2;
61760;PMS5003;47664;51.660;-0.100;2023-08-17T13:18:11;1;1;
61760;PMS5003;47664;51.660;-0.100;2023-08-17T13:20:38;1;1;
61760;PMS5003;47664;51.660;-0.100;2023-08-17T13:23:05;2;2;
61760;PMS5003;47664;51.660;-0.100;2023-08-17T13:25:32;2;2;
61760;PMS5003;47664;51.660;-0.100;2023-08-17T13:27:59;3;3;
61760;PMS5003;47664;51.660;-0.100;2023-08-17T13:30:26;2;2;
61760;PMS5003;47664;51.660;-0.100;2023-08-17T13:32:53;2;2;
61760;PMS5003;47664;51.660;-0.100;2023-08-17T13:35:22;2;2;
61760;PMS5003;47664;51.660;-0.100;2023-08-17T13:37:51;4;4;
61760;PMS5003;47664;51.660;-0.100;2023-08-17T13:40:18;1;1;
61760;PMS5003;47664;51.660;-0.100;2023-08-17T13:42:45;4;2;
61760;PMS5003;47664;51.660;-0.100;2023-08-17T13:45:12;1;1;
61760;PMS5003;47664;51.660;-0.100;2023-08-17T13:47:39;2;2;
61760;PMS5003;47664;51.660;-0.100;2023-08-17T13:50:06;1;1;
61760;PMS5003;47664;51.660;-0.100;2023-08-17T13:52:34;2;2;
61760;PMS5003;47664;51.660;-0.100;2023-08-17T13:55:01;1;1;
61760;PMS5003;47664;51.660;-0.100;2023-08-17T13:57:27;1;1;
61760;PMS5003;47664;51.660;-0.100;2023-08-17T13:59:54;4;4;
61760;PMS5003;47664;51.660;-0.100;2023-08-17T14:02:21;3;1;
61760;PMS5003;47664;51.660;-0.100;2023-08-17T14:04:48;1;0;
61760;PMS5003;47664;51.660;-0.100;2023-08-17T14:07:15;4;2;
61760;PMS5003;47664;51.660;-0.100;2023-08-17T14:09:42;2;2;
61760;PMS5003;47664;51.660;-0.100;2023-08-17T14:12:09;2;2;
61760;PMS5003;47664;51.660;-0.100;2023-08-17T14:14:36;2;2;
61760;PMS5003;47664;51.660;-0.100;2023-08-17T14:17:03;1;1;
61760;PMS5003;47664;51.660;-0.100;2023-08-17T14:19:30;2;2;
61760;PMS5003;47664;51.660;-0.100;2023-08-17T14:21:57;4;2;
61760;PMS5003;47664;51.660;-0.100;2023-08-17T14:24:24;4;2;
61760;PMS5003;47664;51.660;-0.100;2023-08-17T14:26:51;1;1;
61760;PMS5003;47664;51.660;-0.100;2023-08-17T14:29:18;2;2;
61760;PMS5003;47664;51.660;-0.100;2023-08-17T14:31:45;3;3;
61760;PMS5003;47664;51.660;-0.100;2023-08-17T14:34:11;2;2;
61760;PMS5003;47664;51.660;-0.100;2023-08-17T14:36:38;3;3;
61760;PMS5003;47664;51.660;-0.100;2023-08-17T14:39:06;5;4;
61760;PMS5003;47664;51.660;-0.100;2023-08-17T14:41:32;2;2;
61760;PMS5003;47664;51.660;-0.100;2023-08-17T14:43:59;3;3;
61760;PMS5003;47664;51.660;-0.100;2023-08-17T14:46:26;3;3;
61760;PMS5003;47664;51.660;-0.100;2023-08-17T14:48:53;1;1;
61760;PMS5003;47664;51.660;-0.100;2023-08-17T14:51:20;3;3;
61760;PMS5003;47664;51.660;-0.100;2023-08-17T14:53:47;2;2;
61760;PMS5003;47664;51.660;-0.100;2023-08-17T14:56:14;2;2;
61760;PMS5003;47664;51.660;-0.100;2023-08-17T14:58:41;5;2;
61760;PMS5003;47664;51.660;-0.100;2023-08-17T15:01:08;2;2;
61760;PMS5003;47664;51.660;-0.100;2023-08-17T15:03:35;3;2;
61760;PMS5003;47664;51.660;-0.100;2023-08-17T15:06:02;5;2;
61760;PMS5003;47664;51.660;-0.100;2023-08-17T15:08:28;1;1;
61760;PMS5003;47664;51.660;-0.100;2023-08-17T15:10:55;3;1;
61760;PMS5003;47664;51.660;-0.100;2023-08-17T15:13:23;2;2;
61760;PMS5003;47664;51.660;-0.100;2023-08-17T15:15:51;1;1;
61760;PMS5003;47664;51.660;-0.100;2023-08-17T15:18:18;3;3;
61760;PMS5003;47664;51.660;-0.100;2023-08-17T15:20:45;2;2;
61760;PMS5003;47664;51.660;-0.100;2023-08-17T15:23:12;3;1;
61760;PMS5003;47664;51.660;-0.100;2023-08-17T15:25:40;3;1;
61760;PMS5003;47664;51.660;-0.100;2023-08-17T15:28:07;4;2;
61760;PMS5003;47664;51.660;-0.100;2023-08-17T15:30:34;1;1;
61760;PMS5003;47664;51.660;-0.100;2023-08-17T15:33:01;1;1;
61760;PMS5003;47664;51.660;-0.100;2023-08-17T15:35:27;2;2;
61760;PMS5003;47664;51.660;-0.100;2023-08-17T15:37:54;1;1;
61760;PMS5003;47664;51.660;-0.100;2023-08-17T15:40:21;1;1;
61760;PMS5003;47664;51.660;-0.100;2023-08-17T15:42:49;0;0;
61760;PMS5003;47664;51.660;-0.100;2023-08-17T15:45:16;2;2;
61760;PMS5003;47664;51.660;-0.100;2023-08-17T15:47:42;2;1;
61760;PMS5003;47664;51.660;-0.100;2023-08-17T15:50:09;4;2;
61760;PMS5003;47664;51.660;-0.100;2023-08-17T15:52:36;2;2;
61760;PMS5003;47664;51.660;-0.100;2023-08-17T15:55:04;5;2;
61760;PMS5003;47664;51.660;-0.100;2023-08-17T15:57:31;2;2;
61760;PMS5003;47664;51.660;-0.100;2023-08-17T15:59:58;2;2;
61760;PMS5003;47664;51.660;-0.100;2023-08-17T16:02:25;1;1;
61760;PMS5003;47664;51.660;-0.100;2023-08-17T16:04:53;3;2;
61760;PMS5003;47664;51.660;-0.100;2023-08-17T16:07:20;1;1;
61760;PMS5003;47664;51.660;-0.100;2023-08-17T16:09:46;1;1;
61760;PMS5003;47664;51.660;-0.100;2023-08-17T16:12:13;4;3;
61760;PMS5003;47664;51.660;-0.100;2023-08-17T16:14:41;0;0;
61760;PMS5003;47664;51.660;-0.100;2023-08-17T16:17:08;1;1;
61760;PMS5003;47664;51.660;-0.100;2023-08-17T16:19:35;2;1;
61760;PMS5003;47664;51.660;-0.100;2023-08-17T16:22:01;3;2;